sensor_id;sensor_type;location;lat;lon;timestamp;P1;durP1;ratioP1;P2;durP2;ratioP2
65279;SDS011;51878;55.748;48.742;2023-07-08T00:04:29;5.55;;;4.10;;
65279;SDS011;51878;55.748;48.742;2023-07-08T00:09:32;8.10;;;4.47;;
65279;SDS011;51878;55.748;48.742;2023-07-08T00:14:34;8.00;;;4.50;;
65279;SDS011;51878;55.748;48.742;2023-07-08T00:19:36;5.95;;;4.18;;
65279;SDS011;51878;55.748;48.742;2023-07-08T00:24:39;7.50;;;4.35;;
65279;SDS011;51878;55.748;48.742;2023-07-08T00:29:43;11.13;;;4.40;;
65279;SDS011;51878;55.748;48.742;2023-07-08T00:34:45;8.50;;;4.00;;
65279;SDS011;51878;55.748;48.742;2023-07-08T00:39:48;7.63;;;4.22;;
65279;SDS011;51878;55.748;48.742;2023-07-08T00:44:50;6.50;;;4.00;;
65279;SDS011;51878;55.748;48.742;2023-07-08T00:49:55;6.80;;;4.20;;
65279;SDS011;51878;55.748;48.742;2023-07-08T00:55:09;7.60;;;4.20;;
65279;SDS011;51878;55.748;48.742;2023-07-08T01:00:13;6.28;;;4.20;;
65279;SDS011;51878;55.748;48.742;2023-07-08T01:05:20;5.55;;;4.35;;
65279;SDS011;51878;55.748;48.742;2023-07-08T01:10:27;4.88;;;4.15;;
65279;SDS011;51878;55.748;48.742;2023-07-08T01:15:39;5.60;;;4.35;;
65279;SDS011;51878;55.748;48.742;2023-07-08T01:20:45;7.40;;;4.20;;
65279;SDS011;51878;55.748;48.742;2023-07-08T01:25:49;7.72;;;4.72;;
65279;SDS011;51878;55.748;48.742;2023-07-08T01:30:51;8.05;;;4.75;;
65279;SDS011;51878;55.748;48.742;2023-07-08T01:35:54;6.25;;;4.10;;
65279;SDS011;51878;55.748;48.742;2023-07-08T01:40:57;6.65;;;4.25;;
65279;SDS011;51878;55.748;48.742;2023-07-08T01:46:00;8.00;;;4.00;;
65279;SDS011;51878;55.748;48.742;2023-07-08T01:51:04;9.00;;;4.15;;
65279;SDS011;51878;55.748;48.742;2023-07-08T01:56:09;7.70;;;4.78;;
65279;SDS011;51878;55.748;48.742;2023-07-08T02:01:13;6.65;;;4.25;;
65279;SDS011;51878;55.748;48.742;2023-07-08T02:06:15;10.02;;;4.63;;
65279;SDS011;51878;55.748;48.742;2023-07-08T02:11:17;8.63;;;4.43;;
65279;SDS011;51878;55.748;48.742;2023-07-08T02:16:20;7.10;;;4.70;;
65279;SDS011;51878;55.748;48.742;2023-07-08T02:21:22;7.85;;;4.80;;
65279;SDS011;51878;55.748;48.742;2023-07-08T02:26:24;6.43;;;4.70;;
65279;SDS011;51878;55.748;48.742;2023-07-08T02:31:26;5.85;;;4.78;;
65279;SDS011;51878;55.748;48.742;2023-07-08T02:36:29;6.60;;;4.28;;
65279;SDS011;51878;55.748;48.742;2023-07-08T02:41:31;8.15;;;4.78;;
65279;SDS011;51878;55.748;48.742;2023-07-08T02:46:36;8.27;;;4.70;;
65279;SDS011;51878;55.748;48.742;2023-07-08T02:51:38;5.85;;;4.10;;
65279;SDS011;51878;55.748;48.742;2023-07-08T02:56:41;12.32;;;4.45;;
65279;SDS011;51878;55.748;48.742;2023-07-08T03:01:43;7.03;;;4.75;;
65279;SDS011;51878;55.748;48.742;2023-07-08T03:06:49;8.35;;;4.65;;
65279;SDS011;51878;55.748;48.742;2023-07-08T03:11:52;7.38;;;4.82;;
65279;SDS011;51878;55.748;48.742;2023-07-08T03:16:56;6.45;;;4.50;;
65279;SDS011;51878;55.748;48.742;2023-07-08T03:22:02;8.55;;;4.80;;
65279;SDS011;51878;55.748;48.742;2023-07-08T03:27:06;5.50;;;4.40;;
65279;SDS011;51878;55.748;48.742;2023-07-08T03:32:12;9.40;;;4.85;;
65279;SDS011;51878;55.748;48.742;2023-07-08T03:37:17;7.22;;;4.95;;
65279;SDS011;51878;55.748;48.742;2023-07-08T03:42:19;9.77;;;4.82;;
65279;SDS011;51878;55.748;48.742;2023-07-08T03:47:22;6.93;;;4.57;;
65279;SDS011;51878;55.748;48.742;2023-07-08T03:52:24;8.25;;;4.68;;
65279;SDS011;51878;55.748;48.742;2023-07-08T03:57:26;7.15;;;5.15;;
65279;SDS011;51878;55.748;48.742;2023-07-08T04:02:28;7.97;;;5.53;;
65279;SDS011;51878;55.748;48.742;2023-07-08T04:07:31;6.78;;;4.82;;
65279;SDS011;51878;55.748;48.742;2023-07-08T04:12:34;6.57;;;5.30;;
65279;SDS011;51878;55.748;48.742;2023-07-08T04:17:37;9.55;;;5.40;;
65279;SDS011;51878;55.748;48.742;2023-07-08T04:22:45;7.53;;;5.22;;
65279;SDS011;51878;55.748;48.742;2023-07-08T04:27:47;8.32;;;5.45;;
65279;SDS011;51878;55.748;48.742;2023-07-08T04:32:50;11.23;;;5.47;;
65279;SDS011;51878;55.748;48.742;2023-07-08T04:37:53;8.70;;;5.35;;
65279;SDS011;51878;55.748;48.742;2023-07-08T04:42:56;9.15;;;5.30;;
65279;SDS011;51878;55.748;48.742;2023-07-08T04:48:01;9.43;;;5.45;;
65279;SDS011;51878;55.748;48.742;2023-07-08T04:53:10;10.52;;;6.13;;
65279;SDS011;51878;55.748;48.742;2023-07-08T04:58:13;9.07;;;5.68;;
65279;SDS011;51878;55.748;48.742;2023-07-08T05:03:16;12.30;;;5.65;;
65279;SDS011;51878;55.748;48.742;2023-07-08T05:08:18;18.25;;;6.63;;
65279;SDS011;51878;55.748;48.742;2023-07-08T05:13:20;11.90;;;6.03;;
65279;SDS011;51878;55.748;48.742;2023-07-08T05:18:24;9.80;;;5.82;;
65279;SDS011;51878;55.748;48.742;2023-07-08T05:23:26;8.65;;;5.57;;
65279;SDS011;51878;55.748;48.742;2023-07-08T05:28:29;7.70;;;5.80;;
65279;SDS011;51878;55.748;48.742;2023-07-08T05:33:32;8.40;;;6.00;;
65279;SDS011;51878;55.748;48.742;2023-07-08T05:38:34;12.07;;;6.20;;
65279;SDS011;51878;55.748;48.742;2023-07-08T05:43:36;49.83;;;7.45;;
65279;SDS011;51878;55.748;48.742;2023-07-08T05:48:39;10.07;;;5.70;;
65279;SDS011;51878;55.748;48.742;2023-07-08T05:53:41;10.73;;;5.72;;
65279;SDS011;51878;55.748;48.742;2023-07-08T05:58:43;14.77;;;6.30;;
65279;SDS011;51878;55.748;48.742;2023-07-08T06:03:46;10.40;;;5.53;;
65279;SDS011;51878;55.748;48.742;2023-07-08T06:08:49;13.25;;;5.32;;
65279;SDS011;51878;55.748;48.742;2023-07-08T06:13:51;14.07;;;5.72;;
65279;SDS011;51878;55.748;48.742;2023-07-08T06:19:01;12.07;;;5.30;;
65279;SDS011;51878;55.748;48.742;2023-07-08T06:24:03;9.05;;;5.20;;
65279;SDS011;51878;55.748;48.742;2023-07-08T06:29:05;5.97;;;5.05;;
65279;SDS011;51878;55.748;48.742;2023-07-08T06:34:08;7.78;;;5.30;;
65279;SDS011;51878;55.748;48.742;2023-07-08T06:39:10;15.60;;;5.88;;
65279;SDS011;51878;55.748;48.742;2023-07-08T06:44:13;6.50;;;4.97;;
65279;SDS011;51878;55.748;48.742;2023-07-08T06:49:15;9.73;;;5.20;;
65279;SDS011;51878;55.748;48.742;2023-07-08T06:54:18;8.23;;;5.15;;
65279;SDS011;51878;55.748;48.742;2023-07-08T06:59:21;9.02;;;5.43;;
65279;SDS011;51878;55.748;48.742;2023-07-08T07:04:23;6.82;;;4.88;;
65279;SDS011;51878;55.748;48.742;2023-07-08T07:09:25;9.15;;;5.70;;
65279;SDS011;51878;55.748;48.742;2023-07-08T07:14:27;9.95;;;5.45;;
65279;SDS011;51878;55.748;48.742;2023-07-08T07:19:50;9.77;;;5.32;;
65279;SDS011;51878;55.748;48.742;2023-07-08T07:24:53;9.52;;;5.20;;
65279;SDS011;51878;55.748;48.742;2023-07-08T07:29:55;14.25;;;6.10;;
65279;SDS011;51878;55.748;48.742;2023-07-08T07:35:01;6.75;;;5.60;;
65279;SDS011;51878;55.748;48.742;2023-07-08T07:40:08;11.20;;;5.90;;
65279;SDS011;51878;55.748;48.742;2023-07-08T07:45:16;9.32;;;5.63;;
65279;SDS011;51878;55.748;48.742;2023-07-08T07:50:18;9.68;;;5.50;;
65279;SDS011;51878;55.748;48.742;2023-07-08T07:55:21;9.13;;;5.50;;
65279;SDS011;51878;55.748;48.742;2023-07-08T08:00:23;10.57;;;5.80;;
65279;SDS011;51878;55.748;48.742;2023-07-08T08:05:25;9.30;;;5.47;;
65279;SDS011;51878;55.748;48.742;2023-07-08T08:10:27;7.38;;;5.15;;
65279;SDS011;51878;55.748;48.742;2023-07-08T08:15:30;5.60;;;5.05;;
65279;SDS011;51878;55.748;48.742;2023-07-08T08:20:32;7.63;;;5.30;;
65279;SDS011;51878;55.748;48.742;2023-07-08T08:25:34;7.78;;;5.25;;
65279;SDS011;51878;55.748;48.742;2023-07-08T08:30:37;7.50;;;5.28;;
65279;SDS011;51878;55.748;48.742;2023-07-08T08:35:39;7.20;;;5.18;;
65279;SDS011;51878;55.748;48.742;2023-07-08T08:40:43;6.93;;;5.10;;
65279;SDS011;51878;55.748;48.742;2023-07-08T08:51:02;8.38;;;5.20;;
65279;SDS011;51878;55.748;48.742;2023-07-08T08:56:21;6.60;;;4.63;;
65279;SDS011;51878;55.748;48.742;2023-07-08T09:01:27;8.52;;;5.10;;
65279;SDS011;51878;55.748;48.742;2023-07-08T09:06:30;10.85;;;4.90;;
65279;SDS011;51878;55.748;48.742;2023-07-08T09:11:40;7.15;;;4.70;;
65279;SDS011;51878;55.748;48.742;2023-07-08T09:22:49;10.88;;;4.40;;
65279;SDS011;51878;55.748;48.742;2023-07-08T09:27:42;7.18;;;4.13;;
65279;SDS011;51878;55.748;48.742;2023-07-08T09:32:44;6.78;;;4.07;;
65279;SDS011;51878;55.748;48.742;2023-07-08T09:37:48;6.82;;;4.10;;
65279;SDS011;51878;55.748;48.742;2023-07-08T09:42:51;6.85;;;4.45;;
65279;SDS011;51878;55.748;48.742;2023-07-08T09:47:57;5.20;;;4.28;;
65279;SDS011;51878;55.748;48.742;2023-07-08T09:52:59;4.88;;;3.78;;
65279;SDS011;51878;55.748;48.742;2023-07-08T09:58:03;6.95;;;3.90;;
65279;SDS011;51878;55.748;48.742;2023-07-08T10:08:43;4.53;;;3.85;;
65279;SDS011;51878;55.748;48.742;2023-07-08T10:13:50;7.40;;;3.80;;
65279;SDS011;51878;55.748;48.742;2023-07-08T10:19:13;10.60;;;3.75;;
65279;SDS011;51878;55.748;48.742;2023-07-08T10:51:30;6.82;;;3.85;;
65279;SDS011;51878;55.748;48.742;2023-07-08T10:56:40;6.47;;;3.83;;
65279;SDS011;51878;55.748;48.742;2023-07-08T11:02:59;8.85;;;4.03;;
65279;SDS011;51878;55.748;48.742;2023-07-08T11:07:39;6.38;;;3.75;;
65279;SDS011;51878;55.748;48.742;2023-07-08T11:13:03;7.40;;;4.70;;
65279;SDS011;51878;55.748;48.742;2023-07-08T11:18:38;8.80;;;4.82;;
65279;SDS011;51878;55.748;48.742;2023-07-08T11:24:27;4.80;;;4.07;;
65279;SDS011;51878;55.748;48.742;2023-07-08T11:29:31;13.75;;;3.97;;
65279;SDS011;51878;55.748;48.742;2023-07-08T11:34:41;8.75;;;3.65;;
65279;SDS011;51878;55.748;48.742;2023-07-08T11:44:59;7.15;;;3.90;;
65279;SDS011;51878;55.748;48.742;2023-07-08T11:50:08;15.98;;;4.00;;
65279;SDS011;51878;55.748;48.742;2023-07-08T11:55:56;4.82;;;4.30;;
65279;SDS011;51878;55.748;48.742;2023-07-08T12:01:10;5.78;;;3.40;;
65279;SDS011;51878;55.748;48.742;2023-07-08T12:11:34;5.82;;;3.90;;
65279;SDS011;51878;55.748;48.742;2023-07-08T12:16:37;10.85;;;3.63;;
65279;SDS011;51878;55.748;48.742;2023-07-08T12:21:40;7.05;;;3.72;;
65279;SDS011;51878;55.748;48.742;2023-07-08T12:26:43;9.55;;;3.55;;
65279;SDS011;51878;55.748;48.742;2023-07-08T12:31:45;5.55;;;3.70;;
65279;SDS011;51878;55.748;48.742;2023-07-08T12:36:47;7.15;;;3.22;;
65279;SDS011;51878;55.748;48.742;2023-07-08T12:41:50;9.25;;;3.90;;
65279;SDS011;51878;55.748;48.742;2023-07-08T12:46:53;5.75;;;3.50;;
65279;SDS011;51878;55.748;48.742;2023-07-08T12:51:56;8.80;;;3.45;;
65279;SDS011;51878;55.748;48.742;2023-07-08T12:56:59;7.45;;;3.58;;
65279;SDS011;51878;55.748;48.742;2023-07-08T13:02:01;14.52;;;3.90;;
65279;SDS011;51878;55.748;48.742;2023-07-08T13:07:04;8.32;;;3.70;;
65279;SDS011;51878;55.748;48.742;2023-07-08T13:12:16;4.60;;;3.40;;
65279;SDS011;51878;55.748;48.742;2023-07-08T13:17:26;11.90;;;4.13;;
65279;SDS011;51878;55.748;48.742;2023-07-08T13:22:29;4.95;;;3.53;;
65279;SDS011;51878;55.748;48.742;2023-07-08T13:27:32;6.22;;;3.33;;
65279;SDS011;51878;55.748;48.742;2023-07-08T13:32:35;25.98;;;6.40;;
65279;SDS011;51878;55.748;48.742;2023-07-08T13:37:39;8.85;;;3.60;;
65279;SDS011;51878;55.748;48.742;2023-07-08T13:42:48;9.13;;;3.50;;
65279;SDS011;51878;55.748;48.742;2023-07-08T13:47:59;8.43;;;3.70;;
65279;SDS011;51878;55.748;48.742;2023-07-08T13:53:13;5.40;;;3.53;;
65279;SDS011;51878;55.748;48.742;2023-07-08T13:58:17;6.22;;;3.58;;
65279;SDS011;51878;55.748;48.742;2023-07-08T14:03:20;9.25;;;3.47;;
65279;SDS011;51878;55.748;48.742;2023-07-08T14:08:29;15.95;;;4.00;;
65279;SDS011;51878;55.748;48.742;2023-07-08T14:13:31;6.78;;;3.67;;
65279;SDS011;51878;55.748;48.742;2023-07-08T14:18:34;4.93;;;3.58;;
65279;SDS011;51878;55.748;48.742;2023-07-08T14:23:36;4.18;;;3.38;;
65279;SDS011;51878;55.748;48.742;2023-07-08T14:28:40;6.70;;;3.60;;
65279;SDS011;51878;55.748;48.742;2023-07-08T14:33:42;6.63;;;3.28;;
65279;SDS011;51878;55.748;48.742;2023-07-08T14:38:45;6.10;;;3.72;;
65279;SDS011;51878;55.748;48.742;2023-07-08T14:43:48;3.63;;;3.25;;
65279;SDS011;51878;55.748;48.742;2023-07-08T14:48:51;6.13;;;4.35;;
65279;SDS011;51878;55.748;48.742;2023-07-08T14:53:54;6.38;;;3.80;;
65279;SDS011;51878;55.748;48.742;2023-07-08T14:58:59;6.65;;;3.70;;
65279;SDS011;51878;55.748;48.742;2023-07-08T15:04:07;7.10;;;3.67;;
65279;SDS011;51878;55.748;48.742;2023-07-08T15:09:12;4.85;;;3.70;;
65279;SDS011;51878;55.748;48.742;2023-07-08T15:14:22;6.30;;;3.40;;
65279;SDS011;51878;55.748;48.742;2023-07-08T15:19:30;6.35;;;3.63;;
65279;SDS011;51878;55.748;48.742;2023-07-08T15:24:35;5.13;;;3.92;;
65279;SDS011;51878;55.748;48.742;2023-07-08T15:29:39;5.53;;;4.30;;
65279;SDS011;51878;55.748;48.742;2023-07-08T15:34:42;10.18;;;4.13;;
65279;SDS011;51878;55.748;48.742;2023-07-08T15:39:45;5.53;;;3.85;;
65279;SDS011;51878;55.748;48.742;2023-07-08T15:44:48;7.45;;;3.83;;
65279;SDS011;51878;55.748;48.742;2023-07-08T15:49:53;5.38;;;4.03;;
65279;SDS011;51878;55.748;48.742;2023-07-08T15:54:56;7.45;;;3.80;;
65279;SDS011;51878;55.748;48.742;2023-07-08T16:00:00;5.15;;;4.00;;
65279;SDS011;51878;55.748;48.742;2023-07-08T16:05:07;7.78;;;4.43;;
65279;SDS011;51878;55.748;48.742;2023-07-08T16:10:13;11.32;;;4.80;;
65279;SDS011;51878;55.748;48.742;2023-07-08T16:15:22;6.97;;;4.30;;
65279;SDS011;51878;55.748;48.742;2023-07-08T16:20:32;9.30;;;4.50;;
65279;SDS011;51878;55.748;48.742;2023-07-08T16:25:35;8.93;;;4.63;;
65279;SDS011;51878;55.748;48.742;2023-07-08T16:30:40;8.30;;;4.63;;
65279;SDS011;51878;55.748;48.742;2023-07-08T16:35:45;12.80;;;4.88;;
65279;SDS011;51878;55.748;48.742;2023-07-08T16:40:48;6.45;;;4.38;;
65279;SDS011;51878;55.748;48.742;2023-07-08T16:45:53;6.50;;;4.65;;
65279;SDS011;51878;55.748;48.742;2023-07-08T16:50:55;6.97;;;4.63;;
65279;SDS011;51878;55.748;48.742;2023-07-08T16:55:58;11.15;;;4.97;;
65279;SDS011;51878;55.748;48.742;2023-07-08T17:01:00;8.75;;;4.60;;
65279;SDS011;51878;55.748;48.742;2023-07-08T17:06:03;7.95;;;4.80;;
65279;SDS011;51878;55.748;48.742;2023-07-08T17:11:08;8.57;;;4.55;;
65279;SDS011;51878;55.748;48.742;2023-07-08T17:16:15;9.60;;;5.20;;
65279;SDS011;51878;55.748;48.742;2023-07-08T17:21:26;7.03;;;4.47;;
65279;SDS011;51878;55.748;48.742;2023-07-08T17:26:28;7.72;;;4.85;;
65279;SDS011;51878;55.748;48.742;2023-07-08T17:31:30;8.45;;;4.65;;
65279;SDS011;51878;55.748;48.742;2023-07-08T17:36:50;11.82;;;5.05;;
65279;SDS011;51878;55.748;48.742;2023-07-08T17:41:53;10.93;;;5.03;;
65279;SDS011;51878;55.748;48.742;2023-07-08T17:46:55;8.70;;;5.28;;
65279;SDS011;51878;55.748;48.742;2023-07-08T17:52:02;5.57;;;4.05;;
65279;SDS011;51878;55.748;48.742;2023-07-08T17:57:05;6.90;;;3.25;;
65279;SDS011;51878;55.748;48.742;2023-07-08T18:02:12;25.83;;;5.03;;
65279;SDS011;51878;55.748;48.742;2023-07-08T18:07:19;6.85;;;3.75;;
65279;SDS011;51878;55.748;48.742;2023-07-08T18:12:21;7.90;;;4.47;;
65279;SDS011;51878;55.748;48.742;2023-07-08T18:17:26;6.88;;;4.65;;
65279;SDS011;51878;55.748;48.742;2023-07-08T18:22:28;7.80;;;4.93;;
65279;SDS011;51878;55.748;48.742;2023-07-08T18:27:30;6.00;;;4.40;;
65279;SDS011;51878;55.748;48.742;2023-07-08T18:32:34;7.10;;;5.10;;
65279;SDS011;51878;55.748;48.742;2023-07-08T18:37:36;10.05;;;6.68;;
65279;SDS011;51878;55.748;48.742;2023-07-08T18:42:39;19.73;;;6.82;;
65279;SDS011;51878;55.748;48.742;2023-07-08T18:47:44;12.38;;;7.40;;
65279;SDS011;51878;55.748;48.742;2023-07-08T18:52:47;8.63;;;6.97;;
65279;SDS011;51878;55.748;48.742;2023-07-08T18:57:51;14.75;;;6.38;;
65279;SDS011;51878;55.748;48.742;2023-07-08T19:02:57;20.05;;;6.68;;
65279;SDS011;51878;55.748;48.742;2023-07-08T19:08:01;12.40;;;5.60;;
65279;SDS011;51878;55.748;48.742;2023-07-08T19:13:08;10.70;;;5.75;;
65279;SDS011;51878;55.748;48.742;2023-07-08T19:18:21;8.65;;;5.82;;
65279;SDS011;51878;55.748;48.742;2023-07-08T19:23:24;7.97;;;5.28;;
65279;SDS011;51878;55.748;48.742;2023-07-08T19:28:28;8.48;;;5.47;;
65279;SDS011;51878;55.748;48.742;2023-07-08T19:33:30;8.35;;;5.20;;
65279;SDS011;51878;55.748;48.742;2023-07-08T19:38:38;9.07;;;5.25;;
65279;SDS011;51878;55.748;48.742;2023-07-08T19:43:40;8.00;;;5.38;;
65279;SDS011;51878;55.748;48.742;2023-07-08T19:48:43;6.55;;;5.13;;
65279;SDS011;51878;55.748;48.742;2023-07-08T19:53:46;9.45;;;4.90;;
65279;SDS011;51878;55.748;48.742;2023-07-08T19:58:50;12.55;;;6.57;;
65279;SDS011;51878;55.748;48.742;2023-07-08T20:03:53;13.93;;;5.32;;
65279;SDS011;51878;55.748;48.742;2023-07-08T20:08:55;9.77;;;5.53;;
65279;SDS011;51878;55.748;48.742;2023-07-08T20:13:59;10.25;;;5.78;;
65279;SDS011;51878;55.748;48.742;2023-07-08T20:19:02;10.63;;;5.65;;
65279;SDS011;51878;55.748;48.742;2023-07-08T20:24:04;7.15;;;5.80;;
65279;SDS011;51878;55.748;48.742;2023-07-08T20:29:08;11.80;;;6.50;;
65279;SDS011;51878;55.748;48.742;2023-07-08T20:34:24;8.90;;;6.47;;
65279;SDS011;51878;55.748;48.742;2023-07-08T20:39:28;9.57;;;7.03;;
65279;SDS011;51878;55.748;48.742;2023-07-08T20:44:33;10.05;;;5.90;;
65279;SDS011;51878;55.748;48.742;2023-07-08T20:49:37;10.98;;;5.65;;
65279;SDS011;51878;55.748;48.742;2023-07-08T20:54:39;12.02;;;6.10;;
65279;SDS011;51878;55.748;48.742;2023-07-08T20:59:42;8.70;;;5.40;;
65279;SDS011;51878;55.748;48.742;2023-07-08T21:04:47;15.10;;;6.10;;
65279;SDS011;51878;55.748;48.742;2023-07-08T21:09:53;6.43;;;5.05;;
65279;SDS011;51878;55.748;48.742;2023-07-08T21:14:55;11.40;;;5.20;;
65279;SDS011;51878;55.748;48.742;2023-07-08T21:19:57;7.13;;;4.82;;
65279;SDS011;51878;55.748;48.742;2023-07-08T21:25:00;8.48;;;5.00;;
65279;SDS011;51878;55.748;48.742;2023-07-08T21:30:03;12.20;;;5.10;;
65279;SDS011;51878;55.748;48.742;2023-07-08T21:35:19;12.40;;;4.95;;
65279;SDS011;51878;55.748;48.742;2023-07-08T21:45:36;8.95;;;5.38;;
65279;SDS011;51878;55.748;48.742;2023-07-08T21:50:50;12.48;;;5.32;;
65279;SDS011;51878;55.748;48.742;2023-07-08T21:55:56;10.20;;;5.10;;
65279;SDS011;51878;55.748;48.742;2023-07-08T22:00:59;9.63;;;5.53;;
65279;SDS011;51878;55.748;48.742;2023-07-08T22:06:01;8.73;;;5.90;;
65279;SDS011;51878;55.748;48.742;2023-07-08T22:11:05;8.27;;;6.43;;
65279;SDS011;51878;55.748;48.742;2023-07-08T22:16:22;9.80;;;6.88;;
65279;SDS011;51878;55.748;48.742;2023-07-08T22:21:28;8.65;;;6.82;;
65279;SDS011;51878;55.748;48.742;2023-07-08T22:26:33;8.45;;;6.75;;
65279;SDS011;51878;55.748;48.742;2023-07-08T22:31:40;18.38;;;8.88;;
65279;SDS011;51878;55.748;48.742;2023-07-08T22:36:46;12.25;;;6.07;;
65279;SDS011;51878;55.748;48.742;2023-07-08T22:41:49;9.75;;;5.82;;
65279;SDS011;51878;55.748;48.742;2023-07-08T22:46:54;8.82;;;5.78;;
65279;SDS011;51878;55.748;48.742;2023-07-08T22:51:56;10.50;;;5.63;;
65279;SDS011;51878;55.748;48.742;2023-07-08T22:56:59;7.90;;;6.03;;
65279;SDS011;51878;55.748;48.742;2023-07-08T23:02:02;14.43;;;5.45;;
65279;SDS011;51878;55.748;48.742;2023-07-08T23:07:04;7.95;;;5.68;;
65279;SDS011;51878;55.748;48.742;2023-07-08T23:12:08;6.03;;;5.38;;
65279;SDS011;51878;55.748;48.742;2023-07-08T23:17:11;13.75;;;7.57;;
65279;SDS011;51878;55.748;48.742;2023-07-08T23:22:17;9.13;;;6.43;;
65279;SDS011;51878;55.748;48.742;2023-07-08T23:27:22;8.13;;;6.30;;
65279;SDS011;51878;55.748;48.742;2023-07-08T23:32:25;8.20;;;7.18;;
65279;SDS011;51878;55.748;48.742;2023-07-08T23:37:28;7.50;;;6.07;;
65279;SDS011;51878;55.748;48.742;2023-07-08T23:42:30;9.52;;;7.03;;
65279;SDS011;51878;55.748;48.742;2023-07-08T23:47:35;8.25;;;7.22;;
65279;SDS011;51878;55.748;48.742;2023-07-08T23:52:38;8.90;;;6.78;;
65279;SDS011;51878;55.748;48.742;2023-07-08T23:57:40;9.63;;;6.45;;
